createdAt,value
2018-01-17T00:00:59.611Z,95.00
2018-01-17T00:03:27.374Z,95.30
2018-01-17T00:05:56.299Z,94.80
2018-01-17T00:08:23.759Z,94.80
2018-01-17T00:10:52.466Z,94.90
2018-01-17T00:13:19.915Z,94.90
2018-01-17T00:15:48.761Z,95.00
2018-01-17T00:18:17.772Z,94.90
2018-01-17T00:20:46.890Z,94.80
2018-01-17T00:23:16.147Z,94.80
2018-01-17T00:25:43.943Z,94.80
2018-01-17T00:28:11.936Z,94.80
2018-01-17T00:33:13.515Z,94.70
2018-01-17T00:35:41.652Z,94.80
2018-01-17T00:40:41.816Z,94.70
2018-01-17T00:43:09.602Z,94.80
2018-01-17T00:45:38.768Z,94.80
2018-01-17T00:48:08.082Z,94.90
2018-01-17T00:50:36.591Z,94.80
2018-01-17T00:53:04.810Z,94.80
2018-01-17T00:55:32.286Z,94.80
2018-01-17T00:58:00.183Z,94.80
2018-01-17T01:00:28.343Z,94.70
2018-01-17T01:02:57.992Z,94.60
2018-01-17T01:05:25.423Z,94.60
2018-01-17T01:07:52.902Z,94.60
2018-01-17T01:10:20.728Z,94.60
2018-01-17T01:12:48.978Z,94.60
2018-01-17T01:15:18.146Z,94.60
2018-01-17T01:17:46.390Z,94.60
2018-01-17T01:20:14.362Z,94.60
2018-01-17T01:22:41.822Z,94.60
2018-01-17T01:25:10.214Z,94.70
2018-01-17T01:27:39.431Z,94.60
2018-01-17T01:30:08.751Z,94.70
2018-01-17T01:32:37.359Z,94.60
2018-01-17T01:35:06.886Z,94.70
2018-01-17T01:37:37.049Z,94.70
2018-01-17T01:40:04.719Z,94.60
2018-01-17T01:42:32.168Z,94.70
2018-01-17T01:45:00.943Z,94.70
2018-01-17T01:47:29.319Z,94.70
2018-01-17T01:49:56.779Z,94.70
2018-01-17T01:52:25.183Z,94.70
2018-01-17T01:54:53.880Z,94.70
2018-01-17T01:57:22.051Z,94.70
2018-01-17T01:59:50.308Z,94.70
2018-01-17T02:02:19.085Z,95.00
2018-01-17T02:04:47.531Z,94.90
2018-01-17T02:07:16.707Z,94.60
2018-01-17T02:09:45.154Z,94.60
2018-01-17T02:12:12.643Z,94.60
2018-01-17T02:14:40.407Z,94.60
2018-01-17T02:17:08.252Z,94.60
2018-01-17T02:19:37.318Z,94.90
2018-01-17T02:22:05.883Z,94.60
2018-01-17T02:24:36.133Z,94.60
2018-01-17T02:27:04.003Z,94.60
2018-01-17T02:29:33.139Z,94.70
2018-01-17T02:32:01.379Z,94.60
2018-01-17T02:34:29.393Z,94.90
2018-01-17T02:36:56.835Z,94.60
2018-01-17T02:39:25.567Z,94.60
2018-01-17T02:41:54.825Z,94.60
2018-01-17T02:44:23.058Z,95.00
2018-01-17T02:46:51.432Z,94.60
2018-01-17T02:49:19.651Z,94.60
2018-01-17T02:51:48.040Z,94.60
2018-01-17T02:54:16.010Z,94.60
2018-01-17T02:56:45.229Z,94.60
2018-01-17T02:59:14.311Z,94.60
2018-01-17T03:01:42.336Z,94.60
2018-01-17T03:04:10.024Z,94.60
2018-01-17T03:06:39.365Z,94.60
2018-01-17T03:09:07.123Z,94.60
2018-01-17T03:11:35.744Z,94.60
2018-01-17T03:14:03.524Z,94.60
2018-01-17T03:16:32.229Z,94.60
2018-01-17T03:19:00.475Z,94.50
2018-01-17T03:21:28.927Z,94.50
2018-01-17T03:23:57.139Z,94.40
2018-01-17T03:26:26.546Z,94.40
2018-01-17T03:28:55.512Z,94.40
2018-01-17T03:31:23.510Z,94.40
2018-01-17T03:33:51.754Z,94.40
2018-01-17T03:36:20.220Z,94.40
2018-01-17T03:38:48.555Z,94.40
2018-01-17T03:41:16.273Z,94.30
2018-01-17T03:43:43.739Z,94.20
2018-01-17T03:46:11.911Z,94.20
2018-01-17T03:48:40.005Z,94.30
2018-01-17T03:51:09.592Z,94.30
2018-01-17T03:53:37.438Z,94.30
2018-01-17T03:56:06.618Z,94.50
2018-01-17T03:58:34.969Z,94.80
2018-01-17T04:01:02.499Z,94.40
2018-01-17T04:03:32.035Z,94.80
2018-01-17T04:06:00.363Z,94.70
2018-01-17T04:08:28.637Z,94.70
2018-01-17T04:10:58.272Z,94.70
2018-01-17T04:13:27.618Z,94.70
2018-01-17T04:15:55.795Z,94.70
2018-01-17T04:18:23.587Z,94.70
2018-01-17T04:20:51.994Z,94.70
2018-01-17T04:23:20.017Z,94.60
2018-01-17T04:25:49.800Z,94.70
2018-01-17T04:28:19.326Z,94.70
2018-01-17T04:30:47.578Z,94.70
2018-01-17T04:33:17.878Z,94.70
2018-01-17T04:35:45.430Z,94.70
2018-01-17T04:38:12.918Z,94.60
2018-01-17T04:40:41.548Z,94.60
2018-01-17T04:43:09.987Z,94.60
2018-01-17T04:45:37.462Z,94.60
2018-01-17T04:48:06.122Z,95.00
2018-01-17T04:50:34.729Z,94.70
2018-01-17T04:53:03.895Z,94.80
2018-01-17T04:55:31.413Z,94.70
2018-01-17T04:58:00.310Z,94.90
2018-01-17T05:00:29.478Z,94.90
2018-01-17T05:02:57.346Z,94.90
2018-01-17T05:05:26.358Z,95.00
2018-01-17T05:07:54.634Z,95.00
2018-01-17T05:10:24.083Z,95.40
2018-01-17T05:12:51.738Z,95.00
2018-01-17T05:15:20.686Z,94.90
2018-01-17T05:17:48.150Z,94.90
2018-01-17T05:20:17.230Z,95.00
2018-01-17T05:22:45.370Z,95.00
2018-01-17T05:25:14.390Z,95.00
2018-01-17T05:27:42.818Z,95.00
2018-01-17T05:30:11.102Z,94.90
2018-01-17T05:32:40.840Z,94.80
2018-01-17T05:35:10.238Z,94.70
2018-01-17T05:37:38.842Z,94.60
2018-01-17T05:40:06.313Z,94.50
2018-01-17T05:42:34.986Z,94.50
2018-01-17T05:45:04.268Z,94.50
2018-01-17T05:47:32.938Z,94.40
2018-01-17T05:50:01.794Z,94.40
2018-01-17T05:52:31.042Z,94.40
2018-01-17T05:54:59.307Z,94.40
2018-01-17T05:57:28.909Z,94.50
2018-01-17T05:59:57.268Z,94.70
2018-01-17T06:02:29.918Z,94.70
2018-01-17T06:04:59.837Z,94.70
2018-01-17T06:07:30.300Z,94.80
2018-01-17T06:09:57.810Z,94.80
2018-01-17T06:12:27.950Z,94.90
2018-01-17T06:14:56.612Z,94.90
2018-01-17T06:17:25.426Z,94.90
2018-01-17T06:19:58.083Z,94.60
2018-01-17T06:22:28.363Z,94.60
2018-01-17T06:24:58.778Z,94.50
2018-01-17T06:27:27.409Z,94.50
2018-01-17T06:29:55.719Z,94.60
2018-01-17T06:32:24.226Z,94.60
2018-01-17T06:34:54.043Z,94.60
2018-01-17T06:37:22.957Z,94.60
2018-01-17T06:39:54.022Z,94.60
2018-01-17T06:42:21.928Z,94.50
2018-01-17T06:44:49.713Z,94.60
2018-01-17T06:47:17.685Z,94.40
2018-01-17T06:49:45.938Z,94.60
2018-01-17T06:54:47.290Z,94.60
2018-01-17T06:57:16.260Z,94.20
2018-01-17T06:59:43.927Z,94.30
2018-01-17T07:02:13.827Z,94.30
2018-01-17T07:04:43.264Z,94.40
2018-01-17T07:07:11.737Z,94.40
2018-01-17T07:09:40.003Z,94.30
2018-01-17T07:12:09.612Z,94.30
2018-01-17T07:14:39.698Z,94.30
2018-01-17T07:17:07.981Z,94.30
2018-01-17T07:19:36.270Z,94.30
2018-01-17T07:22:04.606Z,94.20
2018-01-17T07:24:33.716Z,94.20
2018-01-17T07:27:02.137Z,94.10
2018-01-17T07:29:30.263Z,94.20
2018-01-17T07:31:58.542Z,94.30
2018-01-17T07:34:26.090Z,94.40
2018-01-17T07:36:55.151Z,94.50
2018-01-17T07:39:23.406Z,94.50
2018-01-17T07:41:52.741Z,94.60
2018-01-17T07:44:20.723Z,94.60
2018-01-17T07:46:51.062Z,94.30
2018-01-17T07:49:19.328Z,94.40
2018-01-17T07:51:48.066Z,94.40
2018-01-17T07:54:15.615Z,94.60
2018-01-17T07:56:43.102Z,94.60
2018-01-17T07:59:11.051Z,94.50
2018-01-17T08:01:39.110Z,94.50
2018-01-17T08:04:07.398Z,94.60
2018-01-17T08:06:35.810Z,94.60
2018-01-17T08:09:04.568Z,94.60
2018-01-17T08:11:32.919Z,94.50
2018-01-17T08:14:01.432Z,94.50
2018-01-17T08:16:29.630Z,94.50
2018-01-17T08:18:57.735Z,94.50
2018-01-17T08:21:26.123Z,94.50
2018-01-17T08:23:58.320Z,94.50
2018-01-17T08:26:28.936Z,94.40
2018-01-17T08:28:57.190Z,94.30
2018-01-17T08:31:25.364Z,94.20
2018-01-17T08:33:54.240Z,94.20
2018-01-17T08:36:22.761Z,94.40
2018-01-17T08:38:52.072Z,94.20
2018-01-17T08:41:22.764Z,94.30
2018-01-17T08:43:51.544Z,94.30
2018-01-17T08:46:21.989Z,94.30
2018-01-17T08:48:52.350Z,94.30
2018-01-17T08:51:21.246Z,94.40
2018-01-17T08:53:49.886Z,94.60
2018-01-17T08:56:18.128Z,94.60
2018-01-17T08:58:47.945Z,94.70
2018-01-17T09:01:17.378Z,94.70
2018-01-17T09:03:46.924Z,94.80
2018-01-17T09:06:18.506Z,94.80
2018-01-17T09:08:47.014Z,94.90
2018-01-17T09:11:14.812Z,94.90
2018-01-17T09:13:42.404Z,95.00
2018-01-17T09:16:11.191Z,95.00
2018-01-17T09:18:39.864Z,95.00
2018-01-17T09:21:10.040Z,95.00
2018-01-17T09:23:39.894Z,95.00
2018-01-17T09:26:07.663Z,95.10
2018-01-17T09:28:35.147Z,95.10
2018-01-17T09:31:03.114Z,95.10
2018-01-17T09:33:34.256Z,95.10
2018-01-17T09:36:02.403Z,95.10
2018-01-17T09:38:30.783Z,95.20
2018-01-17T09:40:58.882Z,95.20
2018-01-17T09:43:27.483Z,95.30
2018-01-17T09:45:57.570Z,95.30
2018-01-17T09:48:25.958Z,95.30
2018-01-17T09:50:54.630Z,95.40
2018-01-17T09:53:22.154Z,95.40
2018-01-17T09:55:50.121Z,95.70
2018-01-17T09:58:17.723Z,95.40
2018-01-17T10:00:46.076Z,95.40
2018-01-17T10:03:14.445Z,95.70
2018-01-17T10:05:42.279Z,95.30
2018-01-17T10:08:09.896Z,95.40
2018-01-17T10:10:39.654Z,95.40
2018-01-17T10:13:08.283Z,95.70
2018-01-17T10:15:36.664Z,95.30
2018-01-17T10:18:05.283Z,95.40
2018-01-17T10:20:33.806Z,95.50
2018-01-17T10:23:01.676Z,95.50
2018-01-17T10:25:31.719Z,95.40
2018-01-17T10:27:59.979Z,95.40
2018-01-17T10:30:27.482Z,95.30
2018-01-17T10:32:56.096Z,95.40
2018-01-17T10:35:25.321Z,95.10
2018-01-17T10:37:53.134Z,95.10
2018-01-17T10:40:21.543Z,95.30
2018-01-17T10:42:49.528Z,95.60
2018-01-17T10:45:17.992Z,95.40
2018-01-17T10:47:47.420Z,95.30
2018-01-17T10:50:16.483Z,95.20
2018-01-17T10:52:45.195Z,95.20
2018-01-17T10:55:14.889Z,95.00
2018-01-17T10:57:42.504Z,94.90
2018-01-17T11:00:10.757Z,94.80
2018-01-17T11:02:40.661Z,94.50
2018-01-17T11:05:08.673Z,94.50
2018-01-17T11:07:37.285Z,94.30
2018-01-17T11:10:05.966Z,94.60
2018-01-17T11:12:35.219Z,94.60
2018-01-17T11:15:03.319Z,94.70
2018-01-17T11:17:30.846Z,94.80
2018-01-17T11:19:58.371Z,94.80
2018-01-17T11:22:27.076Z,94.80
2018-01-17T11:24:55.491Z,94.90
2018-01-17T11:27:23.024Z,94.80
2018-01-17T11:29:51.719Z,94.90
2018-01-17T11:32:20.984Z,95.00
2018-01-17T11:34:48.502Z,95.10
2018-01-17T11:37:16.255Z,95.00
2018-01-17T11:39:45.983Z,95.10
2018-01-17T11:42:15.406Z,95.10
2018-01-17T11:44:45.954Z,94.50
2018-01-17T11:47:15.480Z,94.60
2018-01-17T11:49:43.766Z,94.50
2018-01-17T11:52:12.387Z,94.40
2018-01-17T11:54:41.314Z,94.20
2018-01-17T11:57:09.281Z,94.20
2018-01-17T11:59:36.790Z,94.20
2018-01-17T12:02:06.191Z,93.80
2018-01-17T12:04:34.444Z,94.20
2018-01-17T12:07:02.262Z,93.90
2018-01-17T12:09:30.167Z,93.70
2018-01-17T12:11:59.691Z,93.90
2018-01-17T12:14:27.714Z,94.40
2018-01-17T12:16:57.314Z,94.10
2018-01-17T12:19:26.469Z,93.80
2018-01-17T12:21:55.770Z,93.80
2018-01-17T12:24:24.353Z,94.00
2018-01-17T12:26:52.888Z,94.10
2018-01-17T12:29:21.475Z,94.10
2018-01-17T12:31:50.884Z,94.00
2018-01-17T12:34:19.877Z,93.80
2018-01-17T12:36:47.706Z,93.80
2018-01-17T12:39:17.466Z,93.70
2018-01-17T12:41:47.889Z,93.80
2018-01-17T12:44:18.312Z,94.00
2018-01-17T12:46:48.138Z,94.20
2018-01-17T12:49:17.428Z,93.70
2018-01-17T12:51:47.441Z,92.80
2018-01-17T12:54:18.016Z,92.80
2018-01-17T12:56:51.050Z,93.10
2018-01-17T12:59:19.560Z,93.10
2018-01-17T13:01:49.329Z,93.30
2018-01-17T13:04:19.889Z,93.40
2018-01-17T13:06:51.078Z,93.60
2018-01-17T13:09:20.512Z,93.70
2018-01-17T13:11:49.918Z,93.40
2018-01-17T13:14:19.776Z,93.90
2018-01-17T13:16:50.600Z,93.70
2018-01-17T13:19:19.919Z,93.70
2018-01-17T13:21:49.375Z,93.60
2018-01-17T13:24:17.206Z,93.60
2018-01-17T13:26:50.554Z,93.60
2018-01-17T13:29:19.796Z,93.40
2018-01-17T13:31:49.730Z,93.30
2018-01-17T13:34:20.230Z,93.40
2018-01-17T13:36:49.984Z,93.40
2018-01-17T13:39:19.501Z,93.50
2018-01-17T13:41:51.261Z,93.60
2018-01-17T13:44:20.076Z,93.50
2018-01-17T13:46:50.768Z,93.50
2018-01-17T13:49:21.045Z,93.40
2018-01-17T13:51:50.466Z,93.20
2018-01-17T13:54:19.371Z,93.20
2018-01-17T13:56:48.155Z,93.20
2018-01-17T13:59:19.484Z,92.90
2018-01-17T14:01:49.214Z,92.90
2018-01-17T14:04:19.265Z,93.40
2018-01-17T14:06:48.787Z,93.10
2018-01-17T14:09:17.418Z,93.30
2018-01-17T14:11:45.839Z,93.30
2018-01-17T14:14:17.590Z,93.30
2018-01-17T14:16:48.082Z,93.30
2018-01-17T14:19:18.393Z,93.40
2018-01-17T14:21:50.945Z,93.50
2018-01-17T14:24:20.665Z,93.80
2018-01-17T14:26:51.773Z,93.80
2018-01-17T14:29:25.418Z,94.00
2018-01-17T14:31:55.192Z,94.40
2018-01-17T14:34:23.094Z,94.30
2018-01-17T14:36:51.789Z,94.50
2018-01-17T14:39:20.759Z,94.50
2018-01-17T14:41:50.896Z,94.70
2018-01-17T14:44:20.911Z,94.80
2018-01-17T14:46:51.263Z,95.00
2018-01-17T14:49:18.814Z,95.00
2018-01-17T14:51:47.538Z,95.00
2018-01-17T14:54:15.067Z,95.10
2018-01-17T14:56:45.009Z,95.10
2018-01-17T14:59:14.184Z,95.20
2018-01-17T15:01:43.189Z,95.20
2018-01-17T15:04:12.436Z,95.30
2018-01-17T15:06:40.908Z,95.30
2018-01-17T15:09:08.815Z,95.30
2018-01-17T15:11:37.307Z,95.40
2018-01-17T15:14:06.359Z,95.40
2018-01-17T15:16:37.922Z,95.40
2018-01-17T15:19:07.524Z,95.40
2018-01-17T15:21:36.746Z,95.40
2018-01-17T15:24:04.964Z,95.40
2018-01-17T15:26:33.591Z,95.30
2018-01-17T15:29:03.466Z,95.10
2018-01-17T15:31:34.359Z,95.10
2018-01-17T15:34:03.643Z,95.10
2018-01-17T15:36:31.564Z,95.20
2018-01-17T15:39:00.826Z,95.10
2018-01-17T15:41:30.687Z,95.10
2018-01-17T15:43:59.919Z,94.90
2018-01-17T15:46:27.600Z,95.00
2018-01-17T15:48:57.629Z,94.80
2018-01-17T15:51:28.188Z,94.80
2018-01-17T15:53:58.328Z,94.80
2018-01-17T15:56:28.458Z,94.70
2018-01-17T15:58:58.419Z,94.60
2018-01-17T16:01:26.790Z,94.60
2018-01-17T16:03:56.510Z,94.70
2018-01-17T16:06:25.435Z,94.80
2018-01-17T16:08:53.747Z,94.70
2018-01-17T16:11:21.624Z,94.70
2018-01-17T16:13:49.822Z,94.70
2018-01-17T16:16:18.970Z,94.70
2018-01-17T16:18:48.468Z,94.70
2018-01-17T16:21:16.277Z,94.70
2018-01-17T16:23:45.055Z,94.40
2018-01-17T16:26:13.510Z,94.50
2018-01-17T16:28:41.763Z,94.40
2018-01-17T16:31:12.031Z,94.60
2018-01-17T16:33:40.626Z,94.70
2018-01-17T16:36:09.182Z,94.70
2018-01-17T16:38:37.499Z,94.70
2018-01-17T16:41:07.175Z,94.70
2018-01-17T16:43:36.403Z,94.50
2018-01-17T16:46:06.822Z,94.40
2018-01-17T16:48:37.200Z,94.50
2018-01-17T16:51:08.751Z,94.40
2018-01-17T16:53:38.528Z,94.40
2018-01-17T16:56:09.518Z,94.30
2018-01-17T16:58:39.211Z,94.30
2018-01-17T17:01:10.600Z,94.40
2018-01-17T17:03:39.029Z,94.40
2018-01-17T17:06:10.172Z,94.50
2018-01-17T17:08:39.447Z,94.30
2018-01-17T17:11:08.236Z,94.20
2018-01-17T17:13:39.455Z,94.20
2018-01-17T17:16:08.675Z,94.10
2018-01-17T17:18:37.388Z,94.10
2018-01-17T17:21:05.112Z,94.20
2018-01-17T17:23:34.678Z,94.20
2018-01-17T17:26:04.846Z,94.30
2018-01-17T17:28:32.777Z,94.20
2018-01-17T17:31:01.640Z,94.30
2018-01-17T17:33:29.971Z,94.40
2018-01-17T17:35:58.189Z,94.40
2018-01-17T17:38:27.594Z,94.50
2018-01-17T17:40:56.178Z,94.50
2018-01-17T17:43:23.749Z,94.90
2018-01-17T17:45:52.176Z,94.70
2018-01-17T17:48:19.878Z,94.60
2018-01-17T17:50:48.841Z,94.40
2018-01-17T17:53:17.494Z,94.40
2018-01-17T17:55:45.853Z,94.40
2018-01-17T17:58:14.759Z,94.30
2018-01-17T18:00:44.091Z,94.40
2018-01-17T18:03:14.284Z,94.30
2018-01-17T18:05:42.225Z,94.40
2018-01-17T18:08:10.304Z,94.80
2018-01-17T18:10:38.538Z,94.50
2018-01-17T18:13:06.065Z,94.50
2018-01-17T18:15:34.692Z,94.60
2018-01-17T18:18:03.115Z,94.60
2018-01-17T18:20:32.732Z,94.60
2018-01-17T18:23:00.503Z,94.60
2018-01-17T18:25:28.775Z,94.60
2018-01-17T18:27:57.524Z,94.60
2018-01-17T18:30:26.016Z,94.60
2018-01-17T18:32:54.739Z,94.60
2018-01-17T18:35:26.350Z,94.60
2018-01-17T18:37:56.327Z,94.60
2018-01-17T18:40:26.045Z,94.60
2018-01-17T18:42:55.241Z,94.60
2018-01-17T18:45:26.662Z,94.60
2018-01-17T18:47:57.317Z,94.70
2018-01-17T18:50:25.385Z,94.70
2018-01-17T18:52:54.871Z,94.70
2018-01-17T18:55:25.360Z,94.90
2018-01-17T18:57:53.861Z,94.90
2018-01-17T19:00:21.558Z,94.70
2018-01-17T19:02:49.210Z,94.90
2018-01-17T19:05:17.638Z,95.00
2018-01-17T19:07:47.646Z,94.70
2018-01-17T19:10:16.468Z,94.70
2018-01-17T19:12:45.200Z,94.70
2018-01-17T19:17:48.633Z,94.70
2018-01-17T19:20:17.497Z,94.70
2018-01-17T19:22:46.445Z,94.70
2018-01-17T19:25:17.887Z,94.70
2018-01-17T19:27:47.188Z,94.50
2018-01-17T19:30:16.284Z,94.50
2018-01-17T19:32:45.695Z,94.90
2018-01-17T19:35:15.746Z,94.60
2018-01-17T19:37:45.104Z,94.70
2018-01-17T19:40:15.618Z,94.70
2018-01-17T19:42:44.914Z,94.80
2018-01-17T19:45:13.599Z,94.90
2018-01-17T19:47:42.196Z,94.90
2018-01-17T19:50:11.472Z,94.80
2018-01-17T19:52:40.673Z,94.90
2018-01-17T19:55:11.196Z,94.80
2018-01-17T19:57:41.687Z,94.80
2018-01-17T20:00:11.367Z,95.10
2018-01-17T20:02:40.301Z,94.80
2018-01-17T20:05:11.606Z,94.80
2018-01-17T20:07:41.113Z,94.90
2018-01-17T20:10:11.642Z,94.80
2018-01-17T20:12:40.449Z,94.80
2018-01-17T20:15:08.889Z,94.80
2018-01-17T20:17:38.472Z,94.80
2018-01-17T20:22:47.488Z,94.60
2018-01-17T20:25:17.294Z,94.50
2018-01-17T20:27:46.944Z,94.30
2018-01-17T20:30:16.374Z,94.10
2018-01-17T20:32:46.474Z,94.10
2018-01-17T20:35:15.886Z,94.10
2018-01-17T20:37:44.457Z,94.10
2018-01-17T20:40:15.715Z,94.20
2018-01-17T20:42:44.254Z,94.20
2018-01-17T20:45:14.575Z,94.20
2018-01-17T20:47:43.390Z,94.30
2018-01-17T20:50:13.051Z,94.30
2018-01-17T20:52:41.444Z,94.30
2018-01-17T20:55:10.702Z,94.30
2018-01-17T20:57:39.144Z,94.50
2018-01-17T21:00:08.088Z,94.40
2018-01-17T21:02:36.641Z,94.50
2018-01-17T21:05:05.360Z,94.40
2018-01-17T21:07:34.309Z,94.40
2018-01-17T21:10:03.325Z,94.60
2018-01-17T21:12:31.921Z,94.50
2018-01-17T21:15:00.248Z,94.50
2018-01-17T21:17:28.554Z,94.50
2018-01-17T21:19:57.749Z,94.50
2018-01-17T21:22:27.337Z,94.50
2018-01-17T21:24:56.051Z,94.50
2018-01-17T21:27:27.173Z,94.30
2018-01-17T21:29:56.263Z,94.40
2018-01-17T21:32:26.599Z,94.30
2018-01-17T21:34:55.597Z,94.30
2018-01-17T21:37:24.815Z,94.20
2018-01-17T21:39:55.687Z,94.20
2018-01-17T21:42:29.562Z,94.20
2018-01-17T21:45:04.456Z,94.20
2018-01-17T21:47:34.275Z,94.30
2018-01-17T21:50:03.261Z,94.20
2018-01-17T21:52:32.358Z,94.20
2018-01-17T21:55:02.085Z,94.20
2018-01-17T21:57:33.080Z,94.20
2018-01-17T22:00:02.336Z,94.20
2018-01-17T22:02:30.410Z,94.20
2018-01-17T22:04:58.813Z,94.60
2018-01-17T22:07:26.411Z,94.30
2018-01-17T22:09:54.290Z,94.30
2018-01-17T22:12:21.946Z,94.70
2018-01-17T22:14:50.826Z,94.40
2018-01-17T22:17:18.415Z,94.40
2018-01-17T22:19:45.955Z,94.40
2018-01-17T22:22:14.045Z,94.30
2018-01-17T22:24:42.643Z,94.50
2018-01-17T22:27:11.564Z,94.40
2018-01-17T22:29:40.170Z,94.40
2018-01-17T22:32:09.385Z,94.40
2018-01-17T22:34:38.383Z,94.40
2018-01-17T22:37:08.505Z,94.60
2018-01-17T22:39:37.204Z,94.40
2018-01-17T22:42:06.080Z,94.20
2018-01-17T22:44:33.581Z,94.30
2018-01-17T22:47:01.426Z,94.10
2018-01-17T22:49:29.671Z,94.20
2018-01-17T22:51:57.925Z,94.20
2018-01-17T22:54:27.194Z,94.00
2018-01-17T22:56:54.690Z,94.00
2018-01-17T22:59:22.963Z,94.00
2018-01-17T23:01:53.314Z,94.10
2018-01-17T23:04:20.817Z,94.00
2018-01-17T23:06:49.167Z,94.00
2018-01-17T23:09:17.235Z,94.00
2018-01-17T23:11:45.430Z,94.00
2018-01-17T23:14:14.511Z,94.00
2018-01-17T23:16:43.685Z,94.00
2018-01-17T23:19:13.294Z,93.80
2018-01-17T23:21:41.304Z,93.90
2018-01-17T23:24:08.833Z,93.90
2018-01-17T23:26:37.282Z,93.80
2018-01-17T23:29:04.795Z,93.80
2018-01-17T23:31:33.468Z,93.90
2018-01-17T23:34:00.999Z,93.90
2018-01-17T23:36:28.926Z,94.00
2018-01-17T23:38:56.585Z,93.90
2018-01-17T23:41:24.500Z,94.00
2018-01-17T23:43:52.296Z,94.00
2018-01-17T23:46:20.092Z,94.00
2018-01-17T23:48:48.196Z,94.00
2018-01-17T23:51:17.899Z,94.10
2018-01-17T23:53:46.614Z,94.20
2018-01-17T23:56:14.143Z,94.20
2018-01-17T23:58:45.066Z,94.20
